sensor_id;sensor_type;location;lat;lon;timestamp;pressure;altitude;pressure_sealevel;temperature
67599;BMP280;62026;39.230;9.122;2023-01-24T00:00:42;101361.69;;;8.82
67599;BMP280;62026;39.230;9.122;2023-01-24T00:03:08;101361.84;;;8.81
67599;BMP280;62026;39.230;9.122;2023-01-24T00:05:45;101357.56;;;8.80
67599;BMP280;62026;39.230;9.122;2023-01-24T00:08:15;101365.63;;;8.78
67599;BMP280;62026;39.230;9.122;2023-01-24T00:10:41;101359.03;;;8.82
67599;BMP280;62026;39.230;9.122;2023-01-24T00:13:12;101362.81;;;8.80
67599;BMP280;62026;39.230;9.122;2023-01-24T00:15:39;101363.19;;;8.77
67599;BMP280;62026;39.230;9.122;2023-01-24T00:18:05;101363.19;;;8.77
67599;BMP280;62026;39.230;9.122;2023-01-24T00:20:31;101360.56;;;8.77
67599;BMP280;62026;39.230;9.122;2023-01-24T00:22:57;101362.44;;;8.68
67599;BMP280;62026;39.230;9.122;2023-01-24T00:25:23;101362.75;;;8.73
67599;BMP280;62026;39.230;9.122;2023-01-24T00:27:49;101362.91;;;8.72
67599;BMP280;62026;39.230;9.122;2023-01-24T00:30:15;101361.91;;;8.73
67599;BMP280;62026;39.230;9.122;2023-01-24T00:32:41;101361.91;;;8.73
67599;BMP280;62026;39.230;9.122;2023-01-24T00:35:08;101366.19;;;8.74
67599;BMP280;62026;39.230;9.122;2023-01-24T00:37:34;101364.00;;;8.77
67599;BMP280;62026;39.230;9.122;2023-01-24T00:40:00;101364.19;;;8.76
67599;BMP280;62026;39.230;9.122;2023-01-24T00:42:26;101368.63;;;8.75
67599;BMP280;62026;39.230;9.122;2023-01-24T00:44:52;101363.06;;;8.70
67599;BMP280;62026;39.230;9.122;2023-01-24T00:47:18;101369.16;;;8.71
67599;BMP280;62026;39.230;9.122;2023-01-24T00:49:44;101380.50;;;8.71
67599;BMP280;62026;39.230;9.122;2023-01-24T00:52:10;101378.03;;;8.70
67599;BMP280;62026;39.230;9.122;2023-01-24T00:54:36;101385.00;;;8.63
67599;BMP280;62026;39.230;9.122;2023-01-24T00:57:02;101381.69;;;8.69
67599;BMP280;62026;39.230;9.122;2023-01-24T00:59:28;101378.88;;;8.70
67599;BMP280;62026;39.230;9.122;2023-01-24T01:01:54;101389.75;;;8.67
67599;BMP280;62026;39.230;9.122;2023-01-24T01:04:20;101388.56;;;8.70
67599;BMP280;62026;39.230;9.122;2023-01-24T01:06:47;101392.03;;;8.70
67599;BMP280;62026;39.230;9.122;2023-01-24T01:09:13;101387.94;;;8.68
67599;BMP280;62026;39.230;9.122;2023-01-24T01:11:39;101388.09;;;8.66
67599;BMP280;62026;39.230;9.122;2023-01-24T01:14:09;101387.66;;;8.63
67599;BMP280;62026;39.230;9.122;2023-01-24T01:16:35;101377.47;;;8.60
67599;BMP280;62026;39.230;9.122;2023-01-24T01:19:05;101383.81;;;8.65
67599;BMP280;62026;39.230;9.122;2023-01-24T01:21:32;101386.66;;;8.64
67599;BMP280;62026;39.230;9.122;2023-01-24T01:23:58;101387.28;;;8.66
67599;BMP280;62026;39.230;9.122;2023-01-24T01:26:24;101396.16;;;8.65
67599;BMP280;62026;39.230;9.122;2023-01-24T01:28:50;101394.81;;;8.69
67599;BMP280;62026;39.230;9.122;2023-01-24T01:31:19;101392.38;;;8.67
67599;BMP280;62026;39.230;9.122;2023-01-24T01:33:45;101389.06;;;8.65
67599;BMP280;62026;39.230;9.122;2023-01-24T01:36:11;101390.75;;;8.66
67599;BMP280;62026;39.230;9.122;2023-01-24T01:38:37;101386.19;;;8.60
67599;BMP280;62026;39.230;9.122;2023-01-24T01:41:04;101402.63;;;8.62
67599;BMP280;62026;39.230;9.122;2023-01-24T01:43:31;101393.09;;;8.61
67599;BMP280;62026;39.230;9.122;2023-01-24T01:46:21;101388.81;;;8.60
67599;BMP280;62026;39.230;9.122;2023-01-24T01:48:57;101387.50;;;8.56
67599;BMP280;62026;39.230;9.122;2023-01-24T01:51:42;101375.47;;;8.62
67599;BMP280;62026;39.230;9.122;2023-01-24T01:54:19;101384.69;;;8.57
67599;BMP280;62026;39.230;9.122;2023-01-24T01:57:01;101385.38;;;8.60
67599;BMP280;62026;39.230;9.122;2023-01-24T01:59:40;101376.56;;;8.52
67599;BMP280;62026;39.230;9.122;2023-01-24T02:02:09;101379.44;;;8.57
67599;BMP280;62026;39.230;9.122;2023-01-24T02:04:40;101380.44;;;8.56
67599;BMP280;62026;39.230;9.122;2023-01-24T02:07:10;101384.38;;;8.61
67599;BMP280;62026;39.230;9.122;2023-01-24T02:09:49;101380.94;;;8.60
67599;BMP280;62026;39.230;9.122;2023-01-24T02:12:41;101375.16;;;8.56
67599;BMP280;62026;39.230;9.122;2023-01-24T02:15:20;101384.38;;;8.61
67599;BMP280;62026;39.230;9.122;2023-01-24T02:18:06;101389.28;;;8.64
67599;BMP280;62026;39.230;9.122;2023-01-24T02:20:44;101382.38;;;8.63
67599;BMP280;62026;39.230;9.122;2023-01-24T02:23:41;101384.84;;;8.64
67599;BMP280;62026;39.230;9.122;2023-01-24T02:26:37;101386.00;;;8.62
67599;BMP280;62026;39.230;9.122;2023-01-24T02:29:06;101390.63;;;8.60
67599;BMP280;62026;39.230;9.122;2023-01-24T02:31:58;101393.25;;;8.60
67599;BMP280;62026;39.230;9.122;2023-01-24T02:34:27;101397.72;;;8.59
67599;BMP280;62026;39.230;9.122;2023-01-24T02:36:58;101402.16;;;8.59
67599;BMP280;62026;39.230;9.122;2023-01-24T02:39:47;101405.41;;;8.61
67599;BMP280;62026;39.230;9.122;2023-01-24T02:42:17;101402.16;;;8.59
67599;BMP280;62026;39.230;9.122;2023-01-24T02:44:54;101409.69;;;8.62
67599;BMP280;62026;39.230;9.122;2023-01-24T02:47:27;101404.25;;;8.63
67599;BMP280;62026;39.230;9.122;2023-01-24T02:50:02;101411.94;;;8.65
67599;BMP280;62026;39.230;9.122;2023-01-24T02:52:28;101405.53;;;8.67
67599;BMP280;62026;39.230;9.122;2023-01-24T02:55:14;101415.69;;;8.70
67599;BMP280;62026;39.230;9.122;2023-01-24T02:57:40;101412.88;;;8.72
67599;BMP280;62026;39.230;9.122;2023-01-24T03:00:24;101412.06;;;8.71
67599;BMP280;62026;39.230;9.122;2023-01-24T03:02:51;101412.53;;;8.75
67599;BMP280;62026;39.230;9.122;2023-01-24T03:05:16;101406.91;;;8.78
67599;BMP280;62026;39.230;9.122;2023-01-24T03:07:43;101406.91;;;8.78
67599;BMP280;62026;39.230;9.122;2023-01-24T03:10:17;101405.28;;;8.77
67599;BMP280;62026;39.230;9.122;2023-01-24T03:12:46;101399.66;;;8.80
67599;BMP280;62026;39.230;9.122;2023-01-24T03:15:33;101404.94;;;8.80
67599;BMP280;62026;39.230;9.122;2023-01-24T03:18:17;101406.75;;;8.79
67599;BMP280;62026;39.230;9.122;2023-01-24T03:21:03;101403.66;;;8.76
67599;BMP280;62026;39.230;9.122;2023-01-24T03:23:47;101407.28;;;8.75
67599;BMP280;62026;39.230;9.122;2023-01-24T03:26:32;101408.44;;;8.72
67599;BMP280;62026;39.230;9.122;2023-01-24T03:29:19;101402.84;;;8.75
67599;BMP280;62026;39.230;9.122;2023-01-24T03:32:04;101408.22;;;8.82
67599;BMP280;62026;39.230;9.122;2023-01-24T03:34:49;101410.13;;;8.88
67599;BMP280;62026;39.230;9.122;2023-01-24T03:37:22;101410.78;;;8.90
67599;BMP280;62026;39.230;9.122;2023-01-24T03:40:14;101407.50;;;8.88
67599;BMP280;62026;39.230;9.122;2023-01-24T03:42:42;101413.31;;;8.83
67599;BMP280;62026;39.230;9.122;2023-01-24T03:45:23;101403.78;;;8.82
67599;BMP280;62026;39.230;9.122;2023-01-24T03:47:54;101406.25;;;8.84
67599;BMP280;62026;39.230;9.122;2023-01-24T03:50:33;101386.38;;;8.81
67599;BMP280;62026;39.230;9.122;2023-01-24T03:53:23;101387.44;;;8.87
67599;BMP280;62026;39.230;9.122;2023-01-24T03:55:59;101388.81;;;8.83
67599;BMP280;62026;39.230;9.122;2023-01-24T03:58:30;101393.69;;;8.86
67599;BMP280;62026;39.230;9.122;2023-01-24T04:00:57;101398.94;;;8.86
67599;BMP280;62026;39.230;9.122;2023-01-24T04:03:46;101405.69;;;8.89
67599;BMP280;62026;39.230;9.122;2023-01-24T04:06:12;101421.66;;;8.87
67599;BMP280;62026;39.230;9.122;2023-01-24T04:08:39;101416.38;;;8.87
67599;BMP280;62026;39.230;9.122;2023-01-24T04:11:05;101416.75;;;8.84
67599;BMP280;62026;39.230;9.122;2023-01-24T04:13:31;101423.03;;;8.83
67599;BMP280;62026;39.230;9.122;2023-01-24T04:15:58;101422.72;;;8.78
67599;BMP280;62026;39.230;9.122;2023-01-24T04:18:39;101421.72;;;8.79
67599;BMP280;62026;39.230;9.122;2023-01-24T04:21:05;101424.34;;;8.79
67599;BMP280;62026;39.230;9.122;2023-01-24T04:23:33;101435.13;;;8.69
67599;BMP280;62026;39.230;9.122;2023-01-24T04:25:59;101444.66;;;8.70
67599;BMP280;62026;39.230;9.122;2023-01-24T04:28:31;101433.66;;;8.67
67599;BMP280;62026;39.230;9.122;2023-01-24T04:31:02;101445.19;;;8.66
67599;BMP280;62026;39.230;9.122;2023-01-24T04:33:53;101444.00;;;8.68
67599;BMP280;62026;39.230;9.122;2023-01-24T04:36:20;101439.28;;;8.64
67599;BMP280;62026;39.230;9.122;2023-01-24T04:38:46;101450.44;;;8.66
67599;BMP280;62026;39.230;9.122;2023-01-24T04:41:21;101452.06;;;8.67
67599;BMP280;62026;39.230;9.122;2023-01-24T04:43:47;101457.69;;;8.64
67599;BMP280;62026;39.230;9.122;2023-01-24T04:46:13;101459.28;;;8.65
67599;BMP280;62026;39.230;9.122;2023-01-24T04:48:59;101465.59;;;8.64
67599;BMP280;62026;39.230;9.122;2023-01-24T04:51:33;101472.00;;;8.61
67599;BMP280;62026;39.230;9.122;2023-01-24T04:54:02;101489.94;;;8.57
67599;BMP280;62026;39.230;9.122;2023-01-24T04:56:29;101473.50;;;8.55
67599;BMP280;62026;39.230;9.122;2023-01-24T04:58:57;101483.03;;;8.56
67599;BMP280;62026;39.230;9.122;2023-01-24T05:01:24;101469.63;;;8.51
67599;BMP280;62026;39.230;9.122;2023-01-24T05:03:59;101480.78;;;8.53
67599;BMP280;62026;39.230;9.122;2023-01-24T05:06:30;101475.19;;;8.48
67599;BMP280;62026;39.230;9.122;2023-01-24T05:09:16;101477.81;;;8.48
67599;BMP280;62026;39.230;9.122;2023-01-24T05:11:58;101473.91;;;8.44
67599;BMP280;62026;39.230;9.122;2023-01-24T05:14:24;101464.66;;;8.48
67599;BMP280;62026;39.230;9.122;2023-01-24T05:16:50;101463.84;;;8.48
67599;BMP280;62026;39.230;9.122;2023-01-24T05:19:17;101470.91;;;8.47
67599;BMP280;62026;39.230;9.122;2023-01-24T05:21:43;101481.16;;;8.42
67599;BMP280;62026;39.230;9.122;2023-01-24T05:24:09;101462.09;;;8.40
67599;BMP280;62026;39.230;9.122;2023-01-24T05:26:38;101469.16;;;8.40
67599;BMP280;62026;39.230;9.122;2023-01-24T05:29:04;101481.50;;;8.39
67599;BMP280;62026;39.230;9.122;2023-01-24T05:31:30;101477.06;;;8.40
67599;BMP280;62026;39.230;9.122;2023-01-24T05:33:56;101476.88;;;8.41
67599;BMP280;62026;39.230;9.122;2023-01-24T05:36:23;101468.00;;;8.42
67599;BMP280;62026;39.230;9.122;2023-01-24T05:38:50;101467.34;;;8.40
67599;BMP280;62026;39.230;9.122;2023-01-24T05:41:19;101479.84;;;8.38
67599;BMP280;62026;39.230;9.122;2023-01-24T05:43:49;101491.03;;;8.40
67599;BMP280;62026;39.230;9.122;2023-01-24T05:46:19;101491.03;;;8.40
67599;BMP280;62026;39.230;9.122;2023-01-24T05:48:56;101494.63;;;8.39
67599;BMP280;62026;39.230;9.122;2023-01-24T05:51:23;101497.28;;;8.39
67599;BMP280;62026;39.230;9.122;2023-01-24T05:53:51;101497.28;;;8.39
67599;BMP280;62026;39.230;9.122;2023-01-24T05:56:37;101502.53;;;8.39
67599;BMP280;62026;39.230;9.122;2023-01-24T05:59:03;101511.41;;;8.38
67599;BMP280;62026;39.230;9.122;2023-01-24T06:01:29;101505.50;;;8.36
67599;BMP280;62026;39.230;9.122;2023-01-24T06:03:56;101513.88;;;8.40
67599;BMP280;62026;39.230;9.122;2023-01-24T06:06:24;101515.84;;;8.38
67599;BMP280;62026;39.230;9.122;2023-01-24T06:08:51;101514.38;;;8.35
67599;BMP280;62026;39.230;9.122;2023-01-24T06:11:25;101519.66;;;8.35
67599;BMP280;62026;39.230;9.122;2023-01-24T06:13:58;101521.28;;;8.36
67599;BMP280;62026;39.230;9.122;2023-01-24T06:16:26;101511.75;;;8.35
67599;BMP280;62026;39.230;9.122;2023-01-24T06:18:54;101512.91;;;8.33
67599;BMP280;62026;39.230;9.122;2023-01-24T06:21:46;101521.28;;;8.36
67599;BMP280;62026;39.230;9.122;2023-01-24T06:24:26;101515.56;;;8.33
67599;BMP280;62026;39.230;9.122;2023-01-24T06:27:12;101517.38;;;8.32
67599;BMP280;62026;39.230;9.122;2023-01-24T06:29:39;101522.63;;;8.32
67599;BMP280;62026;39.230;9.122;2023-01-24T06:38:02;101526.59;;;8.28
67599;BMP280;62026;39.230;9.122;2023-01-24T06:40:29;101526.59;;;8.28
67599;BMP280;62026;39.230;9.122;2023-01-24T06:42:56;101521.31;;;8.28
67599;BMP280;62026;39.230;9.122;2023-01-24T06:45:22;101525.41;;;8.31
67599;BMP280;62026;39.230;9.122;2023-01-24T06:47:48;101531.16;;;8.26
67599;BMP280;62026;39.230;9.122;2023-01-24T06:50:21;101532.81;;;8.27
67599;BMP280;62026;39.230;9.122;2023-01-24T06:52:49;101529.69;;;8.23
67599;BMP280;62026;39.230;9.122;2023-01-24T06:55:15;101523.63;;;8.23
67599;BMP280;62026;39.230;9.122;2023-01-24T06:57:42;101534.13;;;8.23
67599;BMP280;62026;39.230;9.122;2023-01-24T07:00:09;101534.47;;;8.28
67599;BMP280;62026;39.230;9.122;2023-01-24T07:02:35;101539.06;;;8.26
67599;BMP280;62026;39.230;9.122;2023-01-24T07:05:01;101542.69;;;8.25
67599;BMP280;62026;39.230;9.122;2023-01-24T07:07:27;101547.94;;;8.25
67599;BMP280;62026;39.230;9.122;2023-01-24T07:09:53;101552.88;;;8.28
67599;BMP280;62026;39.230;9.122;2023-01-24T07:12:19;101554.00;;;8.25
67599;BMP280;62026;39.230;9.122;2023-01-24T07:14:45;101564.69;;;8.24
67599;BMP280;62026;39.230;9.122;2023-01-24T07:17:11;101562.06;;;8.24
67599;BMP280;62026;39.230;9.122;2023-01-24T07:19:37;101565.69;;;8.23
67599;BMP280;62026;39.230;9.122;2023-01-24T07:22:04;101575.88;;;8.26
67599;BMP280;62026;39.230;9.122;2023-01-24T07:24:30;101569.78;;;8.25
67599;BMP280;62026;39.230;9.122;2023-01-24T07:26:57;101580.13;;;8.27
67599;BMP280;62026;39.230;9.122;2023-01-24T07:29:24;101572.25;;;8.27
67599;BMP280;62026;39.230;9.122;2023-01-24T07:31:51;101571.44;;;8.27
67599;BMP280;62026;39.230;9.122;2023-01-24T07:34:18;101568.31;;;8.23
67599;BMP280;62026;39.230;9.122;2023-01-24T07:36:47;101569.47;;;8.29
67599;BMP280;62026;39.230;9.122;2023-01-24T07:39:14;101582.63;;;8.29
67599;BMP280;62026;39.230;9.122;2023-01-24T07:41:41;101586.06;;;8.29
67599;BMP280;62026;39.230;9.122;2023-01-24T07:44:12;101599.50;;;8.42
67599;BMP280;62026;39.230;9.122;2023-01-24T07:46:38;101599.00;;;8.47
67599;BMP280;62026;39.230;9.122;2023-01-24T07:49:04;101598.16;;;8.46
67599;BMP280;62026;39.230;9.122;2023-01-24T07:51:30;101600.97;;;8.45
67599;BMP280;62026;39.230;9.122;2023-01-24T07:53:56;101610.34;;;8.47
67599;BMP280;62026;39.230;9.122;2023-01-24T07:56:22;101619.38;;;8.53
67599;BMP280;62026;39.230;9.122;2023-01-24T07:58:49;101611.59;;;8.68
67599;BMP280;62026;39.230;9.122;2023-01-24T08:01:19;101591.31;;;9.07
67599;BMP280;62026;39.230;9.122;2023-01-24T08:03:45;101581.09;;;9.58
67599;BMP280;62026;39.230;9.122;2023-01-24T08:06:11;101571.97;;;10.13
67599;BMP280;62026;39.230;9.122;2023-01-24T08:08:37;101561.81;;;10.61
67599;BMP280;62026;39.230;9.122;2023-01-24T08:11:03;101559.94;;;11.40
67599;BMP280;62026;39.230;9.122;2023-01-24T08:13:29;101559.38;;;11.72
67599;BMP280;62026;39.230;9.122;2023-01-24T08:15:55;101555.88;;;12.00
67599;BMP280;62026;39.230;9.122;2023-01-24T08:18:21;101558.31;;;12.08
67599;BMP280;62026;39.230;9.122;2023-01-24T08:20:47;101554.41;;;12.38
67599;BMP280;62026;39.230;9.122;2023-01-24T08:23:14;101557.34;;;12.70
67599;BMP280;62026;39.230;9.122;2023-01-24T08:25:40;101556.94;;;12.73
67599;BMP280;62026;39.230;9.122;2023-01-24T08:28:06;101555.31;;;12.72
67599;BMP280;62026;39.230;9.122;2023-01-24T08:30:33;101558.94;;;11.69
67599;BMP280;62026;39.230;9.122;2023-01-24T08:33:04;101569.53;;;11.20
67599;BMP280;62026;39.230;9.122;2023-01-24T08:35:31;101583.13;;;10.95
67599;BMP280;62026;39.230;9.122;2023-01-24T08:37:58;101609.22;;;10.69
67599;BMP280;62026;39.230;9.122;2023-01-24T08:40:25;101636.75;;;10.60
67599;BMP280;62026;39.230;9.122;2023-01-24T08:42:51;101664.97;;;9.69
67599;BMP280;62026;39.230;9.122;2023-01-24T08:45:17;101663.06;;;9.32
67599;BMP280;62026;39.230;9.122;2023-01-24T08:47:44;101674.69;;;9.69
67599;BMP280;62026;39.230;9.122;2023-01-24T08:50:10;101654.06;;;9.72
67599;BMP280;62026;39.230;9.122;2023-01-24T08:52:36;101654.28;;;9.48
67599;BMP280;62026;39.230;9.122;2023-01-24T08:55:02;101642.63;;;9.65
67599;BMP280;62026;39.230;9.122;2023-01-24T08:57:28;101657.88;;;9.93
67599;BMP280;62026;39.230;9.122;2023-01-24T08:59:54;101669.09;;;10.24
67599;BMP280;62026;39.230;9.122;2023-01-24T09:02:20;101660.19;;;10.25
67599;BMP280;62026;39.230;9.122;2023-01-24T09:04:46;101660.63;;;10.14
67599;BMP280;62026;39.230;9.122;2023-01-24T09:07:12;101664.06;;;10.00
67599;BMP280;62026;39.230;9.122;2023-01-24T09:09:39;101661.03;;;10.11
67599;BMP280;62026;39.230;9.122;2023-01-24T09:12:05;101664.00;;;10.23
67599;BMP280;62026;39.230;9.122;2023-01-24T09:14:31;101666.84;;;10.21
67599;BMP280;62026;39.230;9.122;2023-01-24T09:16:57;101659.47;;;10.46
67599;BMP280;62026;39.230;9.122;2023-01-24T09:19:23;101651.16;;;10.78
67599;BMP280;62026;39.230;9.122;2023-01-24T09:21:52;101632.94;;;11.20
67599;BMP280;62026;39.230;9.122;2023-01-24T09:24:23;101632.78;;;11.70
67599;BMP280;62026;39.230;9.122;2023-01-24T09:26:49;101624.66;;;12.00
67599;BMP280;62026;39.230;9.122;2023-01-24T09:29:15;101620.81;;;12.09
67599;BMP280;62026;39.230;9.122;2023-01-24T09:31:41;101606.97;;;11.79
67599;BMP280;62026;39.230;9.122;2023-01-24T09:34:15;101610.00;;;11.97
67599;BMP280;62026;39.230;9.122;2023-01-24T09:36:47;101618.41;;;12.49
67599;BMP280;62026;39.230;9.122;2023-01-24T09:39:16;101606.31;;;13.00
67599;BMP280;62026;39.230;9.122;2023-01-24T09:41:59;101606.16;;;13.35
67599;BMP280;62026;39.230;9.122;2023-01-24T09:44:48;101605.50;;;13.59
67599;BMP280;62026;39.230;9.122;2023-01-24T09:47:43;101592.22;;;13.00
67599;BMP280;62026;39.230;9.122;2023-01-24T09:50:22;101611.16;;;12.77
67599;BMP280;62026;39.230;9.122;2023-01-24T09:52:54;101620.19;;;13.16
67599;BMP280;62026;39.230;9.122;2023-01-24T09:55:34;101621.03;;;13.29
67599;BMP280;62026;39.230;9.122;2023-01-24T09:58:29;101617.34;;;13.50
67599;BMP280;62026;39.230;9.122;2023-01-24T10:01:11;101610.41;;;13.16
67599;BMP280;62026;39.230;9.122;2023-01-24T10:03:38;101611.97;;;12.84
67599;BMP280;62026;39.230;9.122;2023-01-24T10:06:22;101605.91;;;12.90
67599;BMP280;62026;39.230;9.122;2023-01-24T10:09:22;101609.66;;;12.55
67599;BMP280;62026;39.230;9.122;2023-01-24T10:23:20;101643.50;;;11.20
67599;BMP280;62026;39.230;9.122;2023-01-24T10:26:01;101643.50;;;11.20
67599;BMP280;62026;39.230;9.122;2023-01-24T10:28:40;101649.47;;;11.07
67599;BMP280;62026;39.230;9.122;2023-01-24T10:31:18;101653.06;;;10.99
67599;BMP280;62026;39.230;9.122;2023-01-24T10:33:49;101650.06;;;11.24
67599;BMP280;62026;39.230;9.122;2023-01-24T10:36:24;101642.38;;;11.29
67599;BMP280;62026;39.230;9.122;2023-01-24T10:38:54;101635.81;;;11.67
67599;BMP280;62026;39.230;9.122;2023-01-24T10:41:26;101637.19;;;10.99
67599;BMP280;62026;39.230;9.122;2023-01-24T10:44:35;101637.34;;;11.13
67599;BMP280;62026;39.230;9.122;2023-01-24T10:50:06;101614.50;;;11.26
67599;BMP280;62026;39.230;9.122;2023-01-24T10:52:33;101609.59;;;10.66
67599;BMP280;62026;39.230;9.122;2023-01-24T10:55:02;101604.31;;;10.66
67599;BMP280;62026;39.230;9.122;2023-01-24T10:57:42;101591.69;;;10.32
67599;BMP280;62026;39.230;9.122;2023-01-24T11:00:35;101576.47;;;10.49
67599;BMP280;62026;39.230;9.122;2023-01-24T11:03:09;101588.09;;;10.54
67599;BMP280;62026;39.230;9.122;2023-01-24T11:05:52;101576.44;;;10.63
67599;BMP280;62026;39.230;9.122;2023-01-24T11:08:34;101570.78;;;10.81
67599;BMP280;62026;39.230;9.122;2023-01-24T11:11:01;101559.56;;;10.58
67599;BMP280;62026;39.230;9.122;2023-01-24T11:13:37;101555.91;;;10.59
67599;BMP280;62026;39.230;9.122;2023-01-24T11:18:52;101551.59;;;10.36
67599;BMP280;62026;39.230;9.122;2023-01-24T11:21:20;101557.50;;;9.94
67599;BMP280;62026;39.230;9.122;2023-01-24T11:26:37;101548.03;;;10.14
67599;BMP280;62026;39.230;9.122;2023-01-24T11:29:16;101557.41;;;10.17
67599;BMP280;62026;39.230;9.122;2023-01-24T11:35:11;101559.19;;;9.72
67599;BMP280;62026;39.230;9.122;2023-01-24T11:49:12;101531.88;;;9.36
67599;BMP280;62026;39.230;9.122;2023-01-24T12:00:35;101521.78;;;9.16
67599;BMP280;62026;39.230;9.122;2023-01-24T12:11:29;101485.84;;;9.24
67599;BMP280;62026;39.230;9.122;2023-01-24T12:22:30;101497.19;;;9.24
67599;BMP280;62026;39.230;9.122;2023-01-24T12:25:05;101491.59;;;9.27
67599;BMP280;62026;39.230;9.122;2023-01-24T12:27:37;101474.72;;;9.36
67599;BMP280;62026;39.230;9.122;2023-01-24T12:33:16;101474.19;;;9.41
67599;BMP280;62026;39.230;9.122;2023-01-24T12:35:54;101466.00;;;9.36
67599;BMP280;62026;39.230;9.122;2023-01-24T12:38:38;101471.69;;;9.25
67599;BMP280;62026;39.230;9.122;2023-01-24T12:49:47;101475.22;;;8.94
67599;BMP280;62026;39.230;9.122;2023-01-24T12:55:36;101465.28;;;9.04
67599;BMP280;62026;39.230;9.122;2023-01-24T12:58:19;101467.41;;;9.24
67599;BMP280;62026;39.230;9.122;2023-01-24T13:09:44;101464.38;;;9.35
67599;BMP280;62026;39.230;9.122;2023-01-24T13:12:23;101460.47;;;9.31
67599;BMP280;62026;39.230;9.122;2023-01-24T13:15:20;101458.09;;;9.36
67599;BMP280;62026;39.230;9.122;2023-01-24T13:18:46;101448.78;;;9.25
67599;BMP280;62026;39.230;9.122;2023-01-24T13:21:34;101465.00;;;9.37
67599;BMP280;62026;39.230;9.122;2023-01-24T13:27:10;101482.81;;;9.35
67599;BMP280;62026;39.230;9.122;2023-01-24T13:30:24;101470.19;;;9.45
67599;BMP280;62026;39.230;9.122;2023-01-24T13:32:57;101458.28;;;9.49
67599;BMP280;62026;39.230;9.122;2023-01-24T13:35:25;101469.19;;;9.46
67599;BMP280;62026;39.230;9.122;2023-01-24T13:38:03;101459.88;;;9.58
67599;BMP280;62026;39.230;9.122;2023-01-24T13:40:31;101440.34;;;9.67
67599;BMP280;62026;39.230;9.122;2023-01-24T13:46:03;101449.50;;;9.86
67599;BMP280;62026;39.230;9.122;2023-01-24T13:48:53;101444.31;;;9.93
67599;BMP280;62026;39.230;9.122;2023-01-24T13:56:26;101444.84;;;10.03
67599;BMP280;62026;39.230;9.122;2023-01-24T13:58:53;101440.44;;;9.95
67599;BMP280;62026;39.230;9.122;2023-01-24T14:01:20;101442.56;;;10.00
67599;BMP280;62026;39.230;9.122;2023-01-24T14:04:01;101448.47;;;10.02
67599;BMP280;62026;39.230;9.122;2023-01-24T14:06:43;101451.44;;;10.13
67599;BMP280;62026;39.230;9.122;2023-01-24T14:09:21;101438.38;;;10.20
67599;BMP280;62026;39.230;9.122;2023-01-24T14:11:58;101436.19;;;10.09
67599;BMP280;62026;39.230;9.122;2023-01-24T14:20:35;101441.47;;;10.30
67599;BMP280;62026;39.230;9.122;2023-01-24T14:23:14;101441.06;;;10.27
67599;BMP280;62026;39.230;9.122;2023-01-24T14:25:50;101440.25;;;10.26
67599;BMP280;62026;39.230;9.122;2023-01-24T14:28:42;101426.22;;;10.26
67599;BMP280;62026;39.230;9.122;2023-01-24T14:31:22;101417.56;;;10.32
67599;BMP280;62026;39.230;9.122;2023-01-24T14:34:30;101431.16;;;10.29
67599;BMP280;62026;39.230;9.122;2023-01-24T14:37:11;101439.47;;;10.32
67599;BMP280;62026;39.230;9.122;2023-01-24T14:39:37;101444.69;;;10.26
67599;BMP280;62026;39.230;9.122;2023-01-24T14:42:15;101444.91;;;10.09
67599;BMP280;62026;39.230;9.122;2023-01-24T14:44:54;101445.81;;;10.17
67599;BMP280;62026;39.230;9.122;2023-01-24T14:47:24;101447.50;;;10.24
67599;BMP280;62026;39.230;9.122;2023-01-24T14:49:54;101454.69;;;10.30
67599;BMP280;62026;39.230;9.122;2023-01-24T14:52:27;101454.78;;;10.22
67599;BMP280;62026;39.230;9.122;2023-01-24T14:54:55;101447.94;;;9.92
67599;BMP280;62026;39.230;9.122;2023-01-24T14:57:25;101457.53;;;10.14
67599;BMP280;62026;39.230;9.122;2023-01-24T15:02:32;101440.19;;;10.20
67599;BMP280;62026;39.230;9.122;2023-01-24T15:04:58;101443.97;;;10.17
67599;BMP280;62026;39.230;9.122;2023-01-24T15:07:25;101455.19;;;10.19
67599;BMP280;62026;39.230;9.122;2023-01-24T15:09:51;101464.75;;;10.20
67599;BMP280;62026;39.230;9.122;2023-01-24T15:12:50;101461.19;;;10.13
67599;BMP280;62026;39.230;9.122;2023-01-24T15:15:18;101466.72;;;10.18
67599;BMP280;62026;39.230;9.122;2023-01-24T15:17:47;101468.97;;;10.21
67599;BMP280;62026;39.230;9.122;2023-01-24T15:20:19;101458.44;;;10.21
67599;BMP280;62026;39.230;9.122;2023-01-24T15:22:53;101444.63;;;10.19
67599;BMP280;62026;39.230;9.122;2023-01-24T15:25:25;101449.75;;;10.06
67599;BMP280;62026;39.230;9.122;2023-01-24T15:27:52;101461.59;;;9.80
67599;BMP280;62026;39.230;9.122;2023-01-24T15:33:01;101469.66;;;9.94
67599;BMP280;62026;39.230;9.122;2023-01-24T15:38:26;101481.59;;;9.90
67599;BMP280;62026;39.230;9.122;2023-01-24T15:46:24;101492.66;;;10.00
67599;BMP280;62026;39.230;9.122;2023-01-24T15:49:58;101492.47;;;10.01
67599;BMP280;62026;39.230;9.122;2023-01-24T15:52:25;101505.56;;;9.95
67599;BMP280;62026;39.230;9.122;2023-01-24T15:54:56;101517.22;;;10.00
67599;BMP280;62026;39.230;9.122;2023-01-24T15:57:30;101523.13;;;10.02
67599;BMP280;62026;39.230;9.122;2023-01-24T16:00:22;101532.16;;;9.56
67599;BMP280;62026;39.230;9.122;2023-01-24T16:02:49;101530.41;;;9.86
67599;BMP280;62026;39.230;9.122;2023-01-24T16:05:18;101535.69;;;9.86
67599;BMP280;62026;39.230;9.122;2023-01-24T16:07:45;101534.03;;;9.99
67599;BMP280;62026;39.230;9.122;2023-01-24T16:10:16;101536.13;;;10.04
67599;BMP280;62026;39.230;9.122;2023-01-24T16:12:43;101545.88;;;10.03
67599;BMP280;62026;39.230;9.122;2023-01-24T16:15:16;101538.31;;;10.00
67599;BMP280;62026;39.230;9.122;2023-01-24T16:17:43;101552.94;;;10.03
67599;BMP280;62026;39.230;9.122;2023-01-24T16:20:27;101549.50;;;10.02
67599;BMP280;62026;39.230;9.122;2023-01-24T16:22:54;101559.69;;;10.05
67599;BMP280;62026;39.230;9.122;2023-01-24T16:25:21;101563.97;;;9.92
67599;BMP280;62026;39.230;9.122;2023-01-24T16:27:48;101554.59;;;9.89
67599;BMP280;62026;39.230;9.122;2023-01-24T16:30:23;101556.03;;;10.06
67599;BMP280;62026;39.230;9.122;2023-01-24T16:32:50;101567.31;;;9.86
67599;BMP280;62026;39.230;9.122;2023-01-24T16:35:17;101578.41;;;9.21